createdAt,value
2022-12-03T00:02:14.491Z,24.30
2022-12-03T00:04:40.959Z,25.58
2022-12-03T00:07:07.326Z,22.63
2022-12-03T00:09:33.727Z,23.55
2022-12-03T00:12:00.117Z,23.67
2022-12-03T00:14:26.536Z,25.15
2022-12-03T00:16:52.901Z,22.52
2022-12-03T00:19:19.361Z,24.98
2022-12-03T00:21:45.761Z,28.60
2022-12-03T00:24:12.156Z,23.47
2022-12-03T00:26:38.584Z,29.27
2022-12-03T00:29:05.073Z,25.95
2022-12-03T00:31:31.502Z,25.02
2022-12-03T00:33:57.978Z,25.15
2022-12-03T00:36:24.419Z,24.00
2022-12-03T00:38:50.813Z,24.05
2022-12-03T00:41:17.201Z,27.83
2022-12-03T00:43:43.623Z,26.10
2022-12-03T00:46:10.051Z,28.27
2022-12-03T00:48:36.541Z,25.17
2022-12-03T00:51:02.944Z,22.80
2022-12-03T00:53:29.622Z,25.00
2022-12-03T00:55:56.099Z,23.25
2022-12-03T00:58:22.538Z,28.00
2022-12-03T01:00:48.954Z,24.50
2022-12-03T01:03:15.340Z,26.13
2022-12-03T01:05:41.695Z,26.83
2022-12-03T01:08:08.099Z,24.83
2022-12-03T01:10:34.536Z,29.77
2022-12-03T01:13:00.924Z,24.90
2022-12-03T01:15:27.381Z,25.35
2022-12-03T01:17:54.395Z,29.48
2022-12-03T01:20:20.933Z,25.15
2022-12-03T01:22:47.466Z,26.45
2022-12-03T01:25:13.904Z,25.33
2022-12-03T01:27:40.261Z,20.52
2022-12-03T01:30:07.568Z,27.23
2022-12-03T01:32:33.967Z,23.90
2022-12-03T01:35:00.399Z,27.63
2022-12-03T01:37:27.401Z,27.27
2022-12-03T01:39:54.180Z,27.27
2022-12-03T01:42:26.387Z,24.67
2022-12-03T01:44:55.786Z,23.30
2022-12-03T01:47:27.320Z,24.00
2022-12-03T01:50:01.732Z,27.87
2022-12-03T01:52:31.951Z,29.30
2022-12-03T01:55:00.534Z,27.20
2022-12-03T01:57:40.531Z,25.98
2022-12-03T02:00:08.097Z,23.42
2022-12-03T02:02:34.846Z,27.40
2022-12-03T02:05:01.484Z,23.27
2022-12-03T02:07:30.318Z,22.25
2022-12-03T02:09:59.426Z,26.08
2022-12-03T02:12:35.105Z,26.17
2022-12-03T02:15:02.031Z,25.13
2022-12-03T02:17:28.837Z,22.80
2022-12-03T02:19:56.063Z,23.25
2022-12-03T02:22:26.967Z,26.90
2022-12-03T02:25:04.787Z,26.25
2022-12-03T02:27:31.220Z,26.60
2022-12-03T02:29:57.729Z,30.90
2022-12-03T02:32:24.263Z,28.00
2022-12-03T02:34:51.868Z,26.33
2022-12-03T02:37:24.040Z,24.63
2022-12-03T02:39:55.422Z,28.87
2022-12-03T02:42:37.970Z,25.23
2022-12-03T02:45:19.602Z,22.65
2022-12-03T02:47:50.447Z,24.02
2022-12-03T02:50:21.988Z,26.20
2022-12-03T02:52:49.311Z,23.83
2022-12-03T02:55:17.814Z,22.50
2022-12-03T02:57:48.171Z,28.45
2022-12-03T03:00:16.395Z,28.33
2022-12-03T03:02:44.607Z,23.77
2022-12-03T03:05:12.237Z,22.20
2022-12-03T03:07:40.359Z,23.63
2022-12-03T03:10:09.290Z,30.50
2022-12-03T03:12:39.208Z,21.35
2022-12-03T03:15:07.665Z,25.00
2022-12-03T03:17:35.318Z,20.90
2022-12-03T03:20:03.181Z,24.38
2022-12-03T03:22:33.076Z,28.15
2022-12-03T03:24:59.641Z,25.58
2022-12-03T03:27:27.016Z,23.77
2022-12-03T03:29:53.807Z,22.50
2022-12-03T03:32:20.602Z,23.02
2022-12-03T03:34:47.300Z,24.35
2022-12-03T03:37:13.767Z,25.88
2022-12-03T03:39:40.257Z,24.20
2022-12-03T03:42:06.694Z,28.90
2022-12-03T03:44:33.416Z,27.52
2022-12-03T03:47:00.011Z,25.50
2022-12-03T03:49:27.253Z,22.40
2022-12-03T03:51:54.217Z,23.98
2022-12-03T03:54:21.533Z,26.57
2022-12-03T03:56:48.127Z,29.88
2022-12-03T03:59:15.171Z,25.25
2022-12-03T04:01:43.680Z,30.00
2022-12-03T04:04:19.833Z,30.13
2022-12-03T04:06:47.194Z,23.67
2022-12-03T04:09:13.592Z,26.75
2022-12-03T04:11:58.315Z,23.05
2022-12-03T04:14:24.952Z,26.42
2022-12-03T04:16:51.467Z,28.63
2022-12-03T04:19:17.957Z,23.60
2022-12-03T04:22:02.784Z,30.38
2022-12-03T04:24:29.151Z,22.25
2022-12-03T04:27:14.249Z,29.95
2022-12-03T04:29:40.689Z,28.55
2022-12-03T04:32:25.454Z,26.10
2022-12-03T04:35:10.423Z,28.35
2022-12-03T04:37:36.824Z,24.25
2022-12-03T04:40:23.917Z,26.35
2022-12-03T04:42:50.266Z,28.00
2022-12-03T04:45:16.837Z,29.87
2022-12-03T04:47:43.357Z,26.63
2022-12-03T04:50:10.308Z,24.17
2022-12-03T04:52:36.858Z,31.38
2022-12-03T04:55:03.635Z,26.10
2022-12-03T04:57:30.020Z,30.13
2022-12-03T04:59:56.394Z,29.10
2022-12-03T05:02:22.856Z,23.70
2022-12-03T05:04:49.335Z,29.52
2022-12-03T05:07:15.743Z,29.13
2022-12-03T05:09:42.121Z,29.10
2022-12-03T05:12:08.768Z,27.38
2022-12-03T05:14:35.252Z,30.55
2022-12-03T05:17:01.676Z,26.85
2022-12-03T05:19:48.101Z,23.00
2022-12-03T05:22:14.524Z,30.70
2022-12-03T05:24:40.929Z,27.08
2022-12-03T05:27:07.325Z,28.02
2022-12-03T05:29:33.723Z,34.72
2022-12-03T05:32:00.138Z,28.70
2022-12-03T05:34:26.646Z,31.67
2022-12-03T05:36:53.033Z,29.65
2022-12-03T05:39:19.422Z,30.63
2022-12-03T05:42:04.960Z,31.05
2022-12-03T05:44:31.760Z,30.38
2022-12-03T05:46:58.152Z,34.47
2022-12-03T05:49:24.573Z,32.10
2022-12-03T05:51:55.206Z,34.63
2022-12-03T05:54:24.832Z,38.25
2022-12-03T05:56:51.343Z,33.92
2022-12-03T05:59:17.848Z,35.33
2022-12-03T06:01:44.339Z,36.85
2022-12-03T06:04:10.704Z,27.40
2022-12-03T06:06:37.215Z,33.90
2022-12-03T06:09:04.719Z,33.30
2022-12-03T06:11:34.051Z,32.03
2022-12-03T06:14:01.045Z,33.47
2022-12-03T06:16:27.647Z,33.53
2022-12-03T06:18:54.239Z,31.67
2022-12-03T06:21:20.797Z,31.02
2022-12-03T06:23:47.194Z,34.27
2022-12-03T06:26:14.486Z,38.40
2022-12-03T06:28:46.340Z,31.08
2022-12-03T06:31:13.537Z,27.00
2022-12-03T06:33:40.002Z,35.00
2022-12-03T06:36:06.865Z,30.97
2022-12-03T06:38:33.313Z,32.78
2022-12-03T06:40:59.737Z,30.13
2022-12-03T06:43:26.131Z,34.75
2022-12-03T06:45:52.951Z,32.67
2022-12-03T06:48:19.388Z,32.30
2022-12-03T06:50:45.753Z,32.28
2022-12-03T06:53:12.174Z,29.08
2022-12-03T06:55:38.536Z,28.58
2022-12-03T06:58:04.948Z,30.65
2022-12-03T07:00:31.338Z,28.73
2022-12-03T07:02:57.774Z,29.67
2022-12-03T07:05:24.241Z,31.67
2022-12-03T07:07:52.194Z,32.83
2022-12-03T07:10:19.394Z,31.40
2022-12-03T07:12:45.808Z,26.70
2022-12-03T07:15:12.307Z,30.70
2022-12-03T07:17:39.028Z,30.23
2022-12-03T07:20:06.324Z,24.80
2022-12-03T07:22:33.029Z,27.20
2022-12-03T07:24:59.437Z,29.83
2022-12-03T07:27:25.803Z,29.60
2022-12-03T07:29:52.179Z,26.45
2022-12-03T07:32:18.596Z,25.23
2022-12-03T07:34:45.031Z,26.52
2022-12-03T07:37:11.429Z,27.73
2022-12-03T07:39:37.837Z,30.15
2022-12-03T07:42:04.680Z,28.88
2022-12-03T07:44:31.951Z,33.58
2022-12-03T07:46:58.701Z,29.33
2022-12-03T07:49:26.636Z,28.07
2022-12-03T07:51:57.225Z,32.85
2022-12-03T07:54:24.488Z,27.90
2022-12-03T07:56:51.067Z,34.13
2022-12-03T07:59:17.830Z,30.17
2022-12-03T08:01:44.805Z,27.97
2022-12-03T08:04:12.911Z,32.22
2022-12-03T08:06:39.287Z,30.15
2022-12-03T08:09:05.676Z,25.95
2022-12-03T08:11:32.927Z,30.10
2022-12-03T08:13:59.568Z,33.63
2022-12-03T08:16:26.179Z,33.20
2022-12-03T08:18:54.638Z,28.13
2022-12-03T08:21:21.947Z,36.03
2022-12-03T08:23:48.642Z,31.55
2022-12-03T08:26:22.565Z,31.77
2022-12-03T08:28:49.889Z,29.98
2022-12-03T08:31:28.017Z,41.67
2022-12-03T08:34:13.789Z,33.25
2022-12-03T08:36:40.213Z,35.83
2022-12-03T08:39:33.611Z,27.43
2022-12-03T08:42:30.683Z,33.78
2022-12-03T08:45:19.487Z,36.20
2022-12-03T08:47:46.206Z,33.22
2022-12-03T08:50:40.098Z,40.05
2022-12-03T08:53:27.594Z,34.93
2022-12-03T08:55:59.533Z,36.08
2022-12-03T08:58:43.954Z,34.05
2022-12-03T09:01:10.650Z,32.63
2022-12-03T09:03:48.682Z,32.13
2022-12-03T09:06:15.200Z,27.90
2022-12-03T09:08:41.639Z,35.67
2022-12-03T09:11:08.007Z,33.40
2022-12-03T09:13:34.515Z,34.55
2022-12-03T09:16:00.899Z,36.67
2022-12-03T09:18:27.348Z,33.93
2022-12-03T09:20:53.737Z,34.85
2022-12-03T09:23:20.141Z,32.53
2022-12-03T09:25:46.519Z,32.63
2022-12-03T09:28:12.892Z,33.13
2022-12-03T09:30:39.292Z,33.10
2022-12-03T09:33:05.728Z,32.42
2022-12-03T09:35:32.203Z,34.55
2022-12-03T09:37:58.602Z,36.55
2022-12-03T09:40:24.992Z,32.90
2022-12-03T09:42:52.002Z,32.43
2022-12-03T09:45:18.527Z,33.60
2022-12-03T09:47:47.736Z,32.58
2022-12-03T09:50:18.683Z,31.85
2022-12-03T09:52:45.453Z,33.72
2022-12-03T09:55:16.532Z,34.20
2022-12-03T09:57:42.966Z,34.58
2022-12-03T10:00:24.394Z,33.75
2022-12-03T10:02:54.645Z,25.67
2022-12-03T10:05:22.454Z,30.40
2022-12-03T10:07:50.553Z,29.97
2022-12-03T10:10:20.836Z,32.63
2022-12-03T10:12:48.308Z,25.92
2022-12-03T10:15:17.412Z,29.40
2022-12-03T10:17:46.353Z,29.40
2022-12-03T10:20:15.902Z,28.30
2022-12-03T10:22:42.438Z,25.27
2022-12-03T10:25:16.020Z,31.27
2022-12-03T10:27:42.988Z,29.98
2022-12-03T10:30:22.287Z,32.25
2022-12-03T10:32:50.836Z,31.37
2022-12-03T10:35:23.661Z,32.28
2022-12-03T10:38:22.278Z,35.95
2022-12-03T10:40:49.479Z,33.40
2022-12-03T10:43:18.671Z,37.00
2022-12-03T10:45:46.053Z,38.17
2022-12-03T10:48:17.012Z,35.22
2022-12-03T10:50:48.255Z,31.60
2022-12-03T10:53:14.682Z,33.45
2022-12-03T10:55:43.497Z,32.92
2022-12-03T10:58:20.330Z,36.97
2022-12-03T11:00:47.317Z,42.00
2022-12-03T11:03:37.109Z,29.90
2022-12-03T11:06:03.716Z,38.50
2022-12-03T11:08:35.674Z,35.15
2022-12-03T11:11:16.000Z,32.43
2022-12-03T11:13:45.588Z,41.53
2022-12-03T11:16:12.929Z,28.30
2022-12-03T11:18:39.461Z,36.08
2022-12-03T11:21:08.641Z,29.70
2022-12-03T11:23:44.201Z,31.47
2022-12-03T11:26:28.957Z,27.17
2022-12-03T11:28:57.779Z,30.60
2022-12-03T11:31:41.983Z,30.00
2022-12-03T11:34:20.617Z,30.35
2022-12-03T11:37:11.855Z,27.33
2022-12-03T11:39:50.652Z,26.45
2022-12-03T11:42:26.101Z,24.02
2022-12-03T11:45:05.159Z,27.15
2022-12-03T11:47:53.200Z,21.83
2022-12-03T11:50:21.586Z,21.20
2022-12-03T11:52:53.240Z,22.92
2022-12-03T11:55:29.301Z,20.45
2022-12-03T11:58:01.138Z,22.83
2022-12-03T12:00:27.659Z,21.88
2022-12-03T12:02:56.831Z,22.63
2022-12-03T12:05:28.048Z,22.20
2022-12-03T12:07:55.569Z,26.55
2022-12-03T12:10:48.518Z,19.85
2022-12-03T12:13:30.123Z,27.40
2022-12-03T12:15:57.608Z,22.20
2022-12-03T12:18:55.538Z,19.90
2022-12-03T12:21:44.020Z,21.15
2022-12-03T12:24:46.903Z,25.23
2022-12-03T12:27:37.731Z,24.20
2022-12-03T12:30:06.805Z,28.23
2022-12-03T12:32:47.122Z,29.98
2022-12-03T12:35:25.352Z,26.95
2022-12-03T12:37:58.917Z,26.35
2022-12-03T12:40:31.013Z,30.55
2022-12-03T12:42:58.967Z,33.90
2022-12-03T12:45:36.246Z,28.92
2022-12-03T12:48:16.638Z,27.85
2022-12-03T12:50:45.875Z,27.90
2022-12-03T12:53:24.168Z,28.13
2022-12-03T12:56:01.890Z,24.70
2022-12-03T12:58:31.504Z,24.92
2022-12-03T13:01:00.929Z,33.15
2022-12-03T13:03:32.657Z,26.98
2022-12-03T13:05:59.245Z,27.77
2022-12-03T13:08:32.593Z,28.93
2022-12-03T13:11:01.491Z,29.08
2022-12-03T13:13:44.306Z,30.83
2022-12-03T13:16:23.109Z,30.10
2022-12-03T13:18:54.450Z,38.40
2022-12-03T13:21:36.173Z,34.90
2022-12-03T13:24:10.289Z,32.47
2022-12-03T13:26:39.756Z,35.00
2022-12-03T13:29:15.434Z,37.60
2022-12-03T13:31:49.329Z,38.50
2022-12-03T13:34:22.124Z,38.37
2022-12-03T13:36:55.281Z,35.80
2022-12-03T13:39:31.628Z,36.88
2022-12-03T13:42:31.198Z,35.90
2022-12-03T13:44:57.666Z,35.05
2022-12-03T13:47:24.254Z,46.23
2022-12-03T13:49:58.232Z,43.63
2022-12-03T13:52:26.139Z,47.88
2022-12-03T13:54:55.017Z,44.95
2022-12-03T13:57:21.690Z,35.30
2022-12-03T13:59:48.135Z,41.73
2022-12-03T14:02:14.698Z,37.97
2022-12-03T14:04:41.707Z,44.50
2022-12-03T14:07:08.112Z,38.92
2022-12-03T14:09:34.527Z,40.72
2022-12-03T14:12:19.436Z,38.17
2022-12-03T14:14:45.827Z,37.08
2022-12-03T14:17:12.350Z,39.88
2022-12-03T14:19:38.792Z,37.60
2022-12-03T14:22:07.918Z,43.30
2022-12-03T14:24:34.438Z,37.87
2022-12-03T14:27:00.801Z,40.95
2022-12-03T14:29:27.603Z,34.80
2022-12-03T14:31:54.073Z,30.33
2022-12-03T14:34:20.500Z,33.47
2022-12-03T14:36:46.901Z,34.77
2022-12-03T14:39:13.285Z,30.67
2022-12-03T14:41:58.623Z,29.30
2022-12-03T14:44:25.422Z,32.42
2022-12-03T14:46:56.785Z,29.58
2022-12-03T14:49:23.451Z,26.97
2022-12-03T14:51:49.893Z,30.70
2022-12-03T14:54:16.337Z,30.33
2022-12-03T14:56:42.688Z,26.50
2022-12-03T14:59:09.105Z,28.00
2022-12-03T15:01:35.741Z,26.57
2022-12-03T15:04:02.234Z,27.30
2022-12-03T15:06:28.883Z,25.88
2022-12-03T15:08:55.245Z,28.75
2022-12-03T15:11:21.733Z,26.40
2022-12-03T15:13:48.323Z,21.50
2022-12-03T15:16:14.839Z,25.75
2022-12-03T15:18:41.313Z,23.88
2022-12-03T15:21:08.039Z,31.30
2022-12-03T15:23:34.441Z,36.58
2022-12-03T15:26:00.866Z,30.73
2022-12-03T15:28:27.744Z,29.08
2022-12-03T15:30:54.594Z,34.42
2022-12-03T15:33:21.176Z,31.92
2022-12-03T15:35:47.683Z,37.00
2022-12-03T15:38:14.121Z,44.20
2022-12-03T15:40:40.805Z,37.55
2022-12-03T15:43:08.788Z,35.58
2022-12-03T15:45:35.452Z,41.65
2022-12-03T15:48:02.385Z,40.15
2022-12-03T15:50:29.002Z,40.73
2022-12-03T15:52:55.725Z,45.35
2022-12-03T15:55:22.127Z,39.53
2022-12-03T15:57:49.196Z,42.90
2022-12-03T16:00:17.361Z,51.28
2022-12-03T16:02:49.008Z,41.53
2022-12-03T16:05:18.905Z,43.03
2022-12-03T16:07:45.377Z,44.72
2022-12-03T16:10:12.176Z,45.50
2022-12-03T16:12:38.721Z,43.63
2022-12-03T16:15:05.734Z,39.27
2022-12-03T16:17:32.257Z,49.38
2022-12-03T16:19:58.717Z,53.63
2022-12-03T16:22:25.129Z,50.90
2022-12-03T16:24:51.696Z,43.28
2022-12-03T16:27:21.574Z,46.23
2022-12-03T16:29:50.508Z,49.58
2022-12-03T16:32:17.164Z,49.70
2022-12-03T16:34:43.585Z,50.65
2022-12-03T16:37:11.420Z,38.88
2022-12-03T16:39:37.812Z,44.57
2022-12-03T16:42:05.778Z,46.28
2022-12-03T16:44:54.335Z,42.95
2022-12-03T16:47:22.172Z,40.53
2022-12-03T16:49:49.580Z,40.70
2022-12-03T16:52:16.768Z,41.80
2022-12-03T16:54:43.174Z,49.40
2022-12-03T16:57:09.578Z,42.63
2022-12-03T16:59:36.076Z,42.58
2022-12-03T17:02:02.538Z,50.47
2022-12-03T17:04:29.046Z,49.70
2022-12-03T17:06:55.473Z,37.88
2022-12-03T17:09:21.939Z,42.88
2022-12-03T17:11:48.418Z,52.22
2022-12-03T17:14:14.974Z,45.20
2022-12-03T17:16:41.424Z,43.63
2022-12-03T17:19:07.858Z,46.78
2022-12-03T17:21:35.278Z,47.83
2022-12-03T17:24:01.741Z,47.88
2022-12-03T17:26:28.150Z,43.75
2022-12-03T17:28:54.645Z,47.17
2022-12-03T17:31:21.084Z,48.85
2022-12-03T17:33:47.541Z,43.70
2022-12-03T17:36:13.969Z,44.13
2022-12-03T17:38:40.568Z,51.35
2022-12-03T17:41:07.632Z,39.07
2022-12-03T17:43:34.266Z,48.95
2022-12-03T17:46:00.749Z,49.20
2022-12-03T17:48:31.186Z,40.00
2022-12-03T17:50:58.072Z,51.78
2022-12-03T17:53:24.766Z,43.57
2022-12-03T17:55:51.424Z,44.45
2022-12-03T17:58:17.804Z,52.22
2022-12-03T18:00:44.327Z,100.03
2022-12-03T18:03:10.814Z,59.50
2022-12-03T18:05:37.342Z,49.47
2022-12-03T18:08:03.988Z,48.75
2022-12-03T18:10:30.511Z,46.20
2022-12-03T18:13:01.508Z,49.65
2022-12-03T18:15:29.063Z,41.13
2022-12-03T18:17:55.520Z,77.43
2022-12-03T18:20:21.928Z,48.00
2022-12-03T18:22:48.403Z,51.33
2022-12-03T18:25:14.908Z,44.50
2022-12-03T18:27:41.446Z,48.05
2022-12-03T18:30:08.502Z,42.57
2022-12-03T18:32:35.095Z,45.88
2022-12-03T18:35:01.495Z,55.33
2022-12-03T18:37:29.661Z,46.15
2022-12-03T18:39:57.291Z,44.90
2022-12-03T18:42:24.672Z,53.80
2022-12-03T18:44:55.127Z,47.17
2022-12-03T18:47:24.431Z,40.33
2022-12-03T18:49:51.193Z,43.75
2022-12-03T18:52:20.132Z,45.90
2022-12-03T18:54:47.381Z,43.97
2022-12-03T18:57:14.390Z,43.88
2022-12-03T18:59:41.149Z,42.85
2022-12-03T19:02:08.070Z,42.00
2022-12-03T19:04:34.596Z,42.55
2022-12-03T19:07:01.047Z,49.00
2022-12-03T19:09:27.504Z,45.05
2022-12-03T19:11:54.038Z,45.15
2022-12-03T19:14:20.429Z,40.70
2022-12-03T19:16:46.899Z,42.72
2022-12-03T19:19:13.511Z,39.20
2022-12-03T19:21:39.898Z,42.95
2022-12-03T19:26:55.517Z,37.95
2022-12-03T19:29:23.035Z,36.80
2022-12-03T19:31:50.858Z,46.40
2022-12-03T19:34:18.117Z,43.65
2022-12-03T19:36:44.905Z,50.97
2022-12-03T19:39:11.299Z,40.00
2022-12-03T19:41:37.683Z,42.95
2022-12-03T19:44:10.582Z,36.83
2022-12-03T19:46:37.399Z,39.33
2022-12-03T19:49:04.872Z,43.90
2022-12-03T19:51:35.707Z,36.13
2022-12-03T19:54:06.971Z,36.95
2022-12-03T19:56:33.934Z,36.97
2022-12-03T19:59:00.462Z,38.85
2022-12-03T20:01:29.956Z,37.80
2022-12-03T20:03:58.411Z,46.03
2022-12-03T20:06:27.818Z,37.88
2022-12-03T20:08:59.492Z,38.93
2022-12-03T20:11:31.430Z,35.80
2022-12-03T20:14:00.472Z,36.75
2022-12-03T20:16:27.914Z,36.65
2022-12-03T20:18:59.907Z,45.45
2022-12-03T20:21:28.853Z,46.30
2022-12-03T20:23:55.219Z,31.85
2022-12-03T20:26:21.928Z,44.55
2022-12-03T20:28:49.034Z,39.10
2022-12-03T20:31:20.714Z,37.38
2022-12-03T20:33:52.147Z,43.53
2022-12-03T20:36:20.821Z,37.97
2022-12-03T20:38:47.344Z,67.85
2022-12-03T20:41:16.879Z,45.70
2022-12-03T20:43:43.250Z,44.28
2022-12-03T20:46:39.322Z,34.70
2022-12-03T20:49:05.818Z,43.30
2022-12-03T20:51:32.688Z,36.92
2022-12-03T20:54:01.037Z,32.08
2022-12-03T20:56:31.227Z,34.78
2022-12-03T20:59:05.603Z,37.90
2022-12-03T21:01:32.560Z,37.05
2022-12-03T21:03:59.144Z,32.58
2022-12-03T21:06:27.955Z,37.88
2022-12-03T21:08:55.741Z,34.38
2022-12-03T21:11:24.966Z,35.63
2022-12-03T21:13:53.440Z,36.10
2022-12-03T21:16:45.412Z,37.33
2022-12-03T21:19:10.680Z,39.80
2022-12-03T21:21:37.225Z,38.38
2022-12-03T21:24:03.842Z,37.57
2022-12-03T21:26:30.333Z,40.08
2022-12-03T21:28:56.712Z,34.65
2022-12-03T21:31:25.889Z,40.95
2022-12-03T21:33:54.099Z,40.10
2022-12-03T21:36:20.792Z,37.97
2022-12-03T21:38:48.204Z,40.60
2022-12-03T21:41:15.004Z,40.00
2022-12-03T21:43:42.465Z,31.88
2022-12-03T21:47:09.618Z,45.05
2022-12-03T21:48:59.417Z,40.20
2022-12-03T21:51:25.901Z,40.72
2022-12-03T21:53:53.148Z,32.85
2022-12-03T21:56:19.706Z,37.35
2022-12-03T21:58:46.231Z,39.20
2022-12-03T22:01:19.139Z,38.53
2022-12-03T22:03:46.259Z,37.55
2022-12-03T22:06:13.681Z,35.33
2022-12-03T22:08:40.663Z,37.70
2022-12-03T22:11:09.883Z,32.15
2022-12-03T22:13:38.772Z,34.73
2022-12-03T22:16:14.298Z,38.58
2022-12-03T22:18:40.817Z,38.63
2022-12-03T22:21:09.622Z,41.38
2022-12-03T22:23:36.395Z,42.33
2022-12-03T22:26:09.011Z,38.00
2022-12-03T22:28:35.404Z,39.58
2022-12-03T22:31:09.230Z,44.40
2022-12-03T22:33:36.799Z,40.70
2022-12-03T22:36:13.379Z,38.20
2022-12-03T22:38:44.699Z,37.90
2022-12-03T22:41:13.148Z,38.08
2022-12-03T22:43:40.105Z,40.72
2022-12-03T22:46:10.308Z,37.85
2022-12-03T22:48:37.053Z,35.78
2022-12-03T22:51:04.499Z,37.10
2022-12-03T22:53:31.013Z,34.88
2022-12-03T22:55:59.423Z,44.58
2022-12-03T22:58:27.013Z,36.35
2022-12-03T23:00:56.242Z,44.00
2022-12-03T23:03:26.422Z,42.07
2022-12-03T23:05:52.933Z,39.00
2022-12-03T23:08:20.857Z,39.88
2022-12-03T23:10:49.668Z,41.38
2022-12-03T23:13:16.756Z,45.38
2022-12-03T23:15:50.363Z,38.80
2022-12-03T23:18:18.410Z,36.85
2022-12-03T23:20:47.614Z,43.92
2022-12-03T23:23:15.054Z,39.53
2022-12-03T23:25:41.819Z,38.70
2022-12-03T23:28:09.136Z,43.93
2022-12-03T23:30:39.495Z,51.97
2022-12-03T23:33:06.543Z,40.92
2022-12-03T23:35:33.307Z,41.22
2022-12-03T23:37:59.779Z,42.53
2022-12-03T23:40:26.212Z,40.27
2022-12-03T23:42:52.641Z,41.83
2022-12-03T23:45:19.119Z,47.58
2022-12-03T23:47:45.530Z,44.28
2022-12-03T23:50:12.152Z,45.28
2022-12-03T23:52:38.624Z,39.93
2022-12-03T23:55:05.483Z,41.33
2022-12-03T23:57:31.873Z,51.03
2022-12-03T23:59:58.325Z,41.75
